createdAt,value
2023-02-06T00:00:40.222Z,88.3
2023-02-06T00:01:43.822Z,88.3
2023-02-06T00:02:47.199Z,88.2
2023-02-06T00:03:50.992Z,88.2
2023-02-06T00:04:54.458Z,88
2023-02-06T00:05:58.587Z,88
2023-02-06T00:07:02.231Z,88
2023-02-06T00:08:05.018Z,88
2023-02-06T00:09:08.347Z,88.1
2023-02-06T00:10:12.066Z,88
2023-02-06T00:11:14.933Z,88
2023-02-06T00:12:18.771Z,88
2023-02-06T00:13:22.901Z,87.9
2023-02-06T00:14:26.560Z,87.9
2023-02-06T00:15:29.861Z,87.9
2023-02-06T00:16:33.005Z,87.9
2023-02-06T00:17:36.381Z,87.6
2023-02-06T00:18:40.515Z,87.6
2023-02-06T00:19:44.213Z,87.7
2023-02-06T00:21:02.595Z,87.7
2023-02-06T00:22:06.474Z,87.7
2023-02-06T00:23:10.226Z,88
2023-02-06T00:24:13.292Z,88.1
2023-02-06T00:25:16.963Z,88.2
2023-02-06T00:26:20.454Z,88.1
2023-02-06T00:27:23.280Z,88
2023-02-06T00:28:26.536Z,87.9
2023-02-06T00:29:29.790Z,87.9
2023-02-06T00:30:32.753Z,88
2023-02-06T00:31:36.172Z,88.2
2023-02-06T00:32:39.026Z,88.3
2023-02-06T00:33:42.120Z,88.3
2023-02-06T00:34:45.846Z,88.5
2023-02-06T00:35:48.551Z,88.5
2023-02-06T00:36:51.545Z,88.5
2023-02-06T00:37:54.256Z,88.3
2023-02-06T00:38:57.726Z,88.3
2023-02-06T00:40:00.731Z,88.2
2023-02-06T00:41:04.277Z,88.4
2023-02-06T00:42:07.628Z,88.5
2023-02-06T00:43:10.423Z,88.6
2023-02-06T00:44:14.456Z,88.7
2023-02-06T00:45:17.542Z,88.8
2023-02-06T00:46:19.848Z,88.9
2023-02-06T00:47:23.337Z,88.9
2023-02-06T00:48:26.776Z,89
2023-02-06T00:49:30.092Z,89
2023-02-06T00:50:33.459Z,89.2
2023-02-06T00:51:37.098Z,89.8
2023-02-06T00:52:40.550Z,89.8
2023-02-06T00:53:43.142Z,89.9
2023-02-06T00:54:46.513Z,89.9
2023-02-06T00:55:49.644Z,90
2023-02-06T00:56:53.286Z,89.9
2023-02-06T00:57:56.429Z,89.8
2023-02-06T00:58:59.790Z,89.7
2023-02-06T01:00:04.090Z,89.5
2023-02-06T01:01:07.832Z,89.4
2023-02-06T01:02:11.194Z,89.3
2023-02-06T01:03:13.903Z,89.3
2023-02-06T01:04:16.764Z,89.4
2023-02-06T01:05:19.279Z,89.3
2023-02-06T01:06:23.201Z,89.2
2023-02-06T01:07:26.651Z,89.4
2023-02-06T01:08:29.867Z,89.3
2023-02-06T01:09:33.869Z,89.2
2023-02-06T01:10:37.594Z,89.2
2023-02-06T01:11:40.870Z,89.2
2023-02-06T01:12:43.972Z,89.1
2023-02-06T01:13:47.110Z,89
2023-02-06T01:14:50.206Z,88.8
2023-02-06T01:15:54.164Z,89
2023-02-06T01:16:57.985Z,89.2
2023-02-06T01:18:01.440Z,89
2023-02-06T01:19:04.452Z,88.8
2023-02-06T01:20:08.145Z,88.7
2023-02-06T01:21:11.528Z,89
2023-02-06T01:22:15.171Z,89.1
2023-02-06T01:23:17.664Z,89.4
2023-02-06T01:24:21.269Z,89.5
2023-02-06T01:25:23.975Z,89.4
2023-02-06T01:26:26.965Z,89.4
2023-02-06T01:27:30.006Z,89.4
2023-02-06T01:28:32.477Z,89.6
2023-02-06T01:29:35.572Z,89.8
2023-02-06T01:30:38.918Z,89.9
2023-02-06T01:31:43.336Z,90
2023-02-06T01:32:47.099Z,90.3
2023-02-06T01:33:50.789Z,90.5
2023-02-06T01:34:54.199Z,90.8
2023-02-06T01:35:57.409Z,91
2023-02-06T01:37:00.388Z,91.2
2023-02-06T01:38:03.180Z,91.3
2023-02-06T01:39:06.502Z,91.2
2023-02-06T01:40:09.716Z,91.3
2023-02-06T01:41:13.169Z,91.4
2023-02-06T01:42:16.772Z,91.3
2023-02-06T01:43:19.613Z,91.3
2023-02-06T01:44:22.698Z,91.3
2023-02-06T01:45:25.709Z,91.3
2023-02-06T01:46:28.951Z,91.3
2023-02-06T01:47:33.130Z,91.3
2023-02-06T01:48:36.287Z,91.2
2023-02-06T01:49:39.659Z,91.3
2023-02-06T01:50:43.430Z,91.3
2023-02-06T01:51:46.468Z,91.5
2023-02-06T01:52:49.348Z,91.5
2023-02-06T01:53:52.403Z,91.5
2023-02-06T01:54:55.481Z,91.5
2023-02-06T01:55:59.211Z,91.4
2023-02-06T01:57:02.470Z,91.5
2023-02-06T01:58:05.624Z,91.5
2023-02-06T01:59:09.194Z,91.6
2023-02-06T02:00:11.943Z,91.6
2023-02-06T02:01:15.178Z,91.6
2023-02-06T02:02:19.253Z,91.7
2023-02-06T02:03:22.932Z,91.7
2023-02-06T02:04:26.359Z,91.8
2023-02-06T02:05:29.366Z,91.8
2023-02-06T02:06:33.086Z,91.8
2023-02-06T02:07:36.212Z,91.8
2023-02-06T02:08:39.511Z,91.8
2023-02-06T02:09:42.556Z,91.7
2023-02-06T02:10:45.979Z,91.7
2023-02-06T02:11:50.056Z,91.8
2023-02-06T02:12:52.724Z,91.8
2023-02-06T02:13:56.075Z,91.8
2023-02-06T02:14:59.377Z,91.8
2023-02-06T02:16:02.439Z,91.8
2023-02-06T02:17:05.377Z,91.9
2023-02-06T02:18:08.411Z,91.9
2023-02-06T02:19:11.865Z,91.9
2023-02-06T02:20:15.635Z,92
2023-02-06T02:21:18.728Z,91.8
2023-02-06T02:22:21.438Z,91.7
2023-02-06T02:23:24.150Z,91.7
2023-02-06T02:24:27.138Z,91.6
2023-02-06T02:25:31.533Z,91.6
2023-02-06T02:26:35.235Z,91.7
2023-02-06T02:27:38.336Z,91.8
2023-02-06T02:28:41.470Z,91.7
2023-02-06T02:29:44.545Z,91.7
2023-02-06T02:30:48.482Z,91.8
2023-02-06T02:31:51.821Z,91.9
2023-02-06T02:32:55.720Z,91.9
2023-02-06T02:33:58.827Z,92
2023-02-06T02:35:02.969Z,92
2023-02-06T02:36:06.241Z,92
2023-02-06T02:37:10.034Z,92
2023-02-06T02:38:13.116Z,91.9
2023-02-06T02:39:16.473Z,91.8
2023-02-06T02:40:19.569Z,91.6
2023-02-06T02:41:22.276Z,91.6
2023-02-06T02:42:25.345Z,91.6
2023-02-06T02:43:28.419Z,91.7
2023-02-06T02:44:32.057Z,91.6
2023-02-06T02:45:37.242Z,91.6
2023-02-06T02:46:41.814Z,91.5
2023-02-06T02:47:44.965Z,91.4
2023-02-06T02:48:48.357Z,91.2
2023-02-06T02:49:52.192Z,91.1
2023-02-06T02:50:55.716Z,91
2023-02-06T02:51:59.038Z,91.1
2023-02-06T02:53:02.495Z,91.1
2023-02-06T02:54:05.495Z,91.3
2023-02-06T02:55:08.652Z,91.3
2023-02-06T02:56:11.353Z,91.3
2023-02-06T02:57:14.988Z,91.3
2023-02-06T02:58:18.608Z,91.3
2023-02-06T02:59:21.670Z,91.3
2023-02-06T03:00:24.529Z,91.3
2023-02-06T03:01:28.569Z,91.3
2023-02-06T03:02:32.796Z,91.2
2023-02-06T03:03:35.651Z,91.1
2023-02-06T03:04:39.308Z,91.1
2023-02-06T03:05:42.530Z,91
2023-02-06T03:06:46.557Z,90.8
2023-02-06T03:07:49.572Z,90.8
2023-02-06T03:08:52.620Z,90.7
2023-02-06T03:09:56.626Z,90.7
2023-02-06T03:10:59.708Z,90.7
2023-02-06T03:12:03.513Z,90.5
2023-02-06T03:13:06.875Z,90.5
2023-02-06T03:14:09.603Z,90.5
2023-02-06T03:15:12.784Z,90.4
2023-02-06T03:16:15.886Z,90.4
2023-02-06T03:17:18.717Z,90.3
2023-02-06T03:18:21.691Z,90.3
2023-02-06T03:19:25.138Z,90.3
2023-02-06T03:20:28.029Z,90.3
2023-02-06T03:21:31.875Z,90.2
2023-02-06T03:22:35.643Z,90.2
2023-02-06T03:23:38.873Z,90.1
2023-02-06T03:24:41.932Z,90.1
2023-02-06T03:25:45.937Z,89.9
2023-02-06T03:26:49.274Z,89.8
2023-02-06T03:27:52.819Z,89.6
2023-02-06T03:28:55.665Z,89.4
2023-02-06T03:29:59.034Z,89.3
2023-02-06T03:31:02.373Z,89.2
2023-02-06T03:32:05.236Z,89
2023-02-06T03:33:08.668Z,88.9
2023-02-06T03:34:12.293Z,88.9
2023-02-06T03:35:15.300Z,88.9
2023-02-06T03:36:18.690Z,88.7
2023-02-06T03:37:21.548Z,88.6
2023-02-06T03:38:25.297Z,88.7
2023-02-06T03:39:28.310Z,88.8
2023-02-06T03:40:31.435Z,88.8
2023-02-06T03:41:34.439Z,88.8
2023-02-06T03:42:38.154Z,88.8
2023-02-06T03:43:41.887Z,88.6
2023-02-06T03:44:45.240Z,88.6
2023-02-06T03:45:48.839Z,88.4
2023-02-06T03:46:52.480Z,88.3
2023-02-06T03:47:55.812Z,88.3
2023-02-06T03:48:58.834Z,88.1
2023-02-06T03:50:02.182Z,88
2023-02-06T03:51:05.722Z,87.9
2023-02-06T03:52:08.763Z,87.8
2023-02-06T03:53:11.678Z,87.7
2023-02-06T03:54:15.767Z,87.6
2023-02-06T03:55:19.096Z,87.5
2023-02-06T03:56:22.824Z,87.3
2023-02-06T03:57:26.168Z,87.3
2023-02-06T03:58:29.161Z,87.3
2023-02-06T03:59:32.219Z,87.2
2023-02-06T04:00:35.692Z,87
2023-02-06T04:01:39.040Z,86.8
2023-02-06T04:02:42.828Z,86.8
2023-02-06T04:03:45.782Z,86.7
2023-02-06T04:04:48.852Z,86.6
2023-02-06T04:05:52.535Z,86.4
2023-02-06T04:06:55.534Z,86.1
2023-02-06T04:07:58.276Z,85.9
2023-02-06T04:09:01.740Z,85.8
2023-02-06T04:10:05.784Z,85.7
2023-02-06T04:11:08.941Z,85.6
2023-02-06T04:12:11.749Z,85.7
2023-02-06T04:13:15.175Z,85.6
2023-02-06T04:14:17.972Z,85.6
2023-02-06T04:15:21.055Z,85.4
2023-02-06T04:16:24.378Z,85.1
2023-02-06T04:18:02.809Z,85.2
2023-02-06T04:19:08.989Z,85.2
2023-02-06T04:20:12.341Z,85.2
2023-02-06T04:21:16.057Z,85.2
2023-02-06T04:22:19.381Z,85.2
2023-02-06T04:23:22.441Z,85.2
2023-02-06T04:24:25.297Z,85.1
2023-02-06T04:25:29.328Z,85
2023-02-06T04:26:32.734Z,85
2023-02-06T04:27:35.502Z,85
2023-02-06T04:28:38.920Z,84.8
2023-02-06T04:29:41.910Z,84.8
2023-02-06T04:30:45.121Z,84.7
2023-02-06T04:31:48.388Z,84.8
2023-02-06T04:32:51.478Z,84.8
2023-02-06T04:33:54.984Z,84.8
2023-02-06T04:34:58.345Z,84.8
2023-02-06T04:36:01.506Z,84.9
2023-02-06T04:37:05.506Z,85
2023-02-06T04:38:08.555Z,85
2023-02-06T04:39:11.562Z,85
2023-02-06T04:40:14.895Z,85.1
2023-02-06T04:41:18.641Z,85.1
2023-02-06T04:42:22.141Z,85
2023-02-06T04:43:25.413Z,85
2023-02-06T04:44:28.215Z,84.8
2023-02-06T04:45:31.274Z,84.7
2023-02-06T04:46:33.433Z,84.7
2023-02-06T04:47:37.037Z,84.6
2023-02-06T04:48:41.017Z,84.7
2023-02-06T04:49:44.719Z,84.7
2023-02-06T04:50:47.762Z,84.6
2023-02-06T04:51:51.110Z,84.5
2023-02-06T04:52:54.447Z,84.4
2023-02-06T04:53:57.822Z,84.4
2023-02-06T04:55:01.519Z,84.4
2023-02-06T04:56:04.741Z,84.4
2023-02-06T04:57:07.931Z,84.4
2023-02-06T04:58:10.801Z,84.4
2023-02-06T04:59:13.512Z,84.4
2023-02-06T05:00:16.215Z,84.3
2023-02-06T05:01:20.257Z,84.3
2023-02-06T05:02:23.171Z,84.3
2023-02-06T05:03:26.289Z,84.2
2023-02-06T05:04:29.671Z,84.2
2023-02-06T05:05:34.010Z,84.2
2023-02-06T05:06:37.998Z,84.2
2023-02-06T05:07:41.449Z,84.2
2023-02-06T05:08:44.520Z,84.1
2023-02-06T05:09:48.177Z,84.4
2023-02-06T05:10:51.654Z,84.6
2023-02-06T05:11:54.822Z,84.6
2023-02-06T05:12:58.850Z,84.6
2023-02-06T05:14:02.402Z,84.5
2023-02-06T05:15:05.494Z,84.3
2023-02-06T05:16:09.204Z,84.3
2023-02-06T05:17:12.607Z,84.3
2023-02-06T05:18:15.668Z,84.2
2023-02-06T05:19:18.767Z,84.2
2023-02-06T05:20:22.470Z,84.2
2023-02-06T05:21:25.335Z,84.1
2023-02-06T05:22:28.114Z,84.1
2023-02-06T05:23:31.826Z,84
2023-02-06T05:24:34.879Z,84
2023-02-06T05:25:42.810Z,83.8
2023-02-06T05:26:46.232Z,83.8
2023-02-06T05:27:50.345Z,83.9
2023-02-06T05:28:54.426Z,83.9
2023-02-06T05:29:57.499Z,83.9
2023-02-06T05:31:00.891Z,83.9
2023-02-06T05:32:04.274Z,83.9
2023-02-06T05:33:07.333Z,83.9
2023-02-06T05:34:10.712Z,84.1
2023-02-06T05:35:14.160Z,84.1
2023-02-06T05:36:17.622Z,84
2023-02-06T05:37:21.008Z,84.1
2023-02-06T05:38:24.737Z,84
2023-02-06T05:39:27.169Z,84
2023-02-06T05:40:30.308Z,83.9
2023-02-06T05:41:33.948Z,83.9
2023-02-06T05:42:36.767Z,83.8
2023-02-06T05:43:40.247Z,84
2023-02-06T05:44:44.111Z,84.1
2023-02-06T05:45:46.711Z,84.3
2023-02-06T05:46:50.427Z,84.3
2023-02-06T05:47:53.618Z,84.3
2023-02-06T05:48:56.872Z,84.3
2023-02-06T05:50:00.665Z,84.3
2023-02-06T05:51:04.130Z,84.1
2023-02-06T05:52:07.386Z,84
2023-02-06T05:53:10.430Z,83.8
2023-02-06T05:54:14.100Z,83.5
2023-02-06T05:55:17.462Z,83.5
2023-02-06T05:56:20.520Z,83.3
2023-02-06T05:57:24.162Z,83.4
2023-02-06T05:58:27.149Z,83.4
2023-02-06T05:59:30.977Z,83.4
2023-02-06T06:00:34.798Z,83.4
2023-02-06T06:01:38.153Z,83.4
2023-02-06T06:02:41.139Z,83.5
2023-02-06T06:03:45.079Z,83.6
2023-02-06T06:04:49.275Z,83.6
2023-02-06T06:05:52.503Z,83.5
2023-02-06T06:06:55.617Z,83.5
2023-02-06T06:07:59.008Z,83.5
2023-02-06T06:09:01.730Z,83.6
2023-02-06T06:10:04.807Z,83.8
2023-02-06T06:11:07.913Z,83.9
2023-02-06T06:12:11.268Z,84
2023-02-06T06:13:14.106Z,84.1
2023-02-06T06:14:17.467Z,84.2
2023-02-06T06:15:20.591Z,84.2
2023-02-06T06:16:24.655Z,84.2
2023-02-06T06:17:27.833Z,84
2023-02-06T06:18:31.340Z,83.6
2023-02-06T06:19:35.086Z,83.5
2023-02-06T06:20:38.817Z,83.5
2023-02-06T06:21:42.098Z,83.5
2023-02-06T06:22:45.832Z,83.6
2023-02-06T06:23:48.956Z,83.6
2023-02-06T06:24:52.408Z,83.6
2023-02-06T06:25:55.549Z,83.5
2023-02-06T06:26:58.939Z,83.4
2023-02-06T06:28:02.063Z,83.4
2023-02-06T06:29:05.742Z,83.3
2023-02-06T06:30:08.844Z,83.3
2023-02-06T06:31:12.106Z,83.3
2023-02-06T06:32:15.802Z,83.6
2023-02-06T06:33:18.856Z,83.6
2023-02-06T06:34:21.939Z,83.9
2023-02-06T06:35:24.937Z,84
2023-02-06T06:36:28.306Z,84
2023-02-06T06:37:31.650Z,84
2023-02-06T06:38:34.365Z,83.9
2023-02-06T06:39:38.345Z,83.8
2023-02-06T06:40:41.745Z,83.7
2023-02-06T06:41:45.002Z,83.6
2023-02-06T06:42:48.379Z,83.6
2023-02-06T06:43:53.041Z,83.6
2023-02-06T06:44:56.303Z,83.6
2023-02-06T06:45:59.255Z,83.6
2023-02-06T06:47:02.657Z,83.7
2023-02-06T06:48:06.528Z,83.6
2023-02-06T06:49:09.709Z,83.6
2023-02-06T06:50:12.866Z,83.6
2023-02-06T06:51:16.001Z,83.6
2023-02-06T06:52:26.622Z,83.5
2023-02-06T06:53:29.733Z,83.5
2023-02-06T06:54:33.144Z,83.4
2023-02-06T06:55:38.536Z,83.3
2023-02-06T06:56:41.379Z,83.2
2023-02-06T06:57:44.749Z,83
2023-02-06T06:58:48.087Z,82.9
2023-02-06T06:59:51.715Z,82.8
2023-02-06T07:00:54.833Z,82.8
2023-02-06T07:01:58.291Z,82.7
2023-02-06T07:03:01.746Z,82.8
2023-02-06T07:04:06.076Z,82.9
2023-02-06T07:05:09.344Z,83
2023-02-06T07:06:12.971Z,83
2023-02-06T07:07:15.981Z,82.8
2023-02-06T07:08:19.593Z,82.8
2023-02-06T07:09:22.926Z,82.7
2023-02-06T07:10:25.924Z,82.7
2023-02-06T07:11:29.399Z,82.7
2023-02-06T07:12:32.107Z,82.7
2023-02-06T07:13:35.461Z,82.7
2023-02-06T07:14:39.101Z,82.6
2023-02-06T07:15:42.190Z,82.4
2023-02-06T07:16:45.189Z,82.4
2023-02-06T07:17:48.741Z,82.3
2023-02-06T07:18:51.965Z,82.2
2023-02-06T07:19:56.049Z,82.2
2023-02-06T07:20:59.444Z,82.2
2023-02-06T07:22:02.798Z,82.1
2023-02-06T07:23:06.228Z,82.2
2023-02-06T07:24:09.300Z,82.1
2023-02-06T07:25:12.374Z,82.1
2023-02-06T07:26:15.421Z,82.1
2023-02-06T07:27:18.416Z,82.2
2023-02-06T07:28:22.080Z,82.2
2023-02-06T07:29:25.847Z,82.1
2023-02-06T07:30:29.051Z,82
2023-02-06T07:31:32.540Z,81.9
2023-02-06T07:32:36.403Z,82
2023-02-06T07:33:39.803Z,82.1
2023-02-06T07:34:43.437Z,82.1
2023-02-06T07:35:46.644Z,83.1
2023-02-06T07:36:49.751Z,83
2023-02-06T07:37:53.179Z,82.8
2023-02-06T07:38:56.180Z,82.5
2023-02-06T07:39:59.529Z,82.2
2023-02-06T07:41:02.043Z,82
2023-02-06T07:42:05.578Z,81.8
2023-02-06T07:43:08.709Z,81.9
2023-02-06T07:44:12.332Z,82
2023-02-06T07:45:15.675Z,82
2023-02-06T07:46:19.582Z,82.1
2023-02-06T07:47:23.053Z,82.1
2023-02-06T07:48:26.796Z,82
2023-02-06T07:49:29.805Z,82
2023-02-06T07:50:33.326Z,81.7
2023-02-06T07:51:36.883Z,81.7
2023-02-06T07:52:40.610Z,81.6
2023-02-06T07:53:43.325Z,81.5
2023-02-06T07:54:46.102Z,81.5
2023-02-06T07:55:49.555Z,81.3
2023-02-06T07:56:52.692Z,81.3
2023-02-06T07:57:55.672Z,81.1
2023-02-06T07:58:59.107Z,80.9
2023-02-06T08:00:01.349Z,81
2023-02-06T08:01:05.347Z,81.2
2023-02-06T08:02:09.166Z,80.8
2023-02-06T08:03:11.673Z,80.9
2023-02-06T08:04:14.881Z,80.5
2023-02-06T08:05:18.405Z,80.3
2023-02-06T08:06:25.527Z,80
2023-02-06T08:07:29.681Z,79.8
2023-02-06T08:08:32.603Z,79.7
2023-02-06T08:09:35.640Z,79.6
2023-02-06T08:10:38.815Z,79.4
2023-02-06T08:11:42.875Z,79.5
2023-02-06T08:12:46.556Z,79.2
2023-02-06T08:13:49.657Z,79.1
2023-02-06T08:14:52.481Z,79.1
2023-02-06T08:15:54.988Z,79.8
2023-02-06T08:16:58.527Z,80.2
2023-02-06T08:18:01.261Z,80.1
2023-02-06T08:19:04.051Z,79.9
2023-02-06T08:20:07.273Z,79.2
2023-02-06T08:21:10.579Z,79.1
2023-02-06T08:22:13.486Z,79.1
2023-02-06T08:23:19.217Z,78.8
2023-02-06T08:24:23.819Z,78.7
2023-02-06T08:25:27.004Z,78.5
2023-02-06T08:26:30.432Z,78.2
2023-02-06T08:27:34.111Z,77.6
2023-02-06T08:28:37.562Z,77.3
2023-02-06T08:29:40.622Z,77.4
2023-02-06T08:30:43.671Z,77.4
2023-02-06T08:31:48.076Z,77.3
2023-02-06T08:32:51.298Z,77.3
2023-02-06T08:33:54.644Z,77.3
2023-02-06T08:34:58.070Z,77.6
2023-02-06T08:36:02.184Z,77.5
2023-02-06T08:37:05.501Z,77.7
2023-02-06T08:38:08.645Z,77.7
2023-02-06T08:39:12.829Z,77.6
2023-02-06T08:40:16.535Z,77.7
2023-02-06T08:41:19.536Z,77.8
2023-02-06T08:42:23.010Z,78
2023-02-06T08:43:26.074Z,78.2
2023-02-06T08:44:29.099Z,78.4
2023-02-06T08:45:32.275Z,78.4
2023-02-06T08:46:35.147Z,78.5
2023-02-06T08:47:39.156Z,78.7
2023-02-06T08:48:42.497Z,79
2023-02-06T08:49:46.135Z,79.1
2023-02-06T08:50:49.596Z,78.9
2023-02-06T08:51:53.372Z,78.6
2023-02-06T08:52:56.452Z,78.6
2023-02-06T08:53:59.891Z,78.6
2023-02-06T08:55:04.148Z,78.5
2023-02-06T08:56:07.522Z,78.5
2023-02-06T08:57:10.701Z,78.5
2023-02-06T08:58:13.749Z,78.4
2023-02-06T08:59:17.188Z,78.4
2023-02-06T09:00:20.866Z,78.3
2023-02-06T09:01:24.125Z,78.3
2023-02-06T09:02:28.021Z,78
2023-02-06T09:03:32.136Z,78.1
2023-02-06T09:04:35.824Z,78
2023-02-06T09:05:39.403Z,78.4
2023-02-06T09:06:42.742Z,79.1
2023-02-06T09:07:45.920Z,78.3
2023-02-06T09:08:49.638Z,78.8
2023-02-06T09:09:53.154Z,78.5
2023-02-06T09:10:57.278Z,78.3
2023-02-06T09:12:00.385Z,77.6
2023-02-06T09:13:04.090Z,77.5
2023-02-06T09:14:06.582Z,77.6
2023-02-06T09:15:10.216Z,77.1
2023-02-06T09:16:13.956Z,77.4
2023-02-06T09:17:17.738Z,77.5
2023-02-06T09:18:21.129Z,77.1
2023-02-06T09:19:24.476Z,76.8
2023-02-06T09:20:27.986Z,76.8
2023-02-06T09:21:31.348Z,77.5
2023-02-06T09:22:35.420Z,77.5
2023-02-06T09:23:39.548Z,77
2023-02-06T09:24:43.184Z,76.5
2023-02-06T09:25:46.755Z,75.9
2023-02-06T09:27:02.067Z,76
2023-02-06T09:28:05.777Z,75.5
2023-02-06T09:29:08.095Z,75.3
2023-02-06T09:30:11.170Z,75.2
2023-02-06T09:31:14.957Z,75.3
2023-02-06T09:32:18.832Z,75.2
2023-02-06T09:33:23.293Z,75.4
2023-02-06T09:34:27.180Z,75.4
2023-02-06T09:35:30.708Z,74.4
2023-02-06T09:36:34.474Z,74.7
2023-02-06T09:37:37.840Z,75.1
2023-02-06T09:38:41.869Z,74.7
2023-02-06T09:39:45.590Z,74.9
2023-02-06T09:40:48.768Z,74.9
2023-02-06T09:41:51.552Z,74.3
2023-02-06T09:42:55.986Z,73.7
2023-02-06T09:43:59.598Z,73.6
2023-02-06T09:45:02.063Z,74.1
2023-02-06T09:46:05.708Z,73.7
2023-02-06T09:47:09.469Z,73.8
2023-02-06T09:48:12.920Z,73.7
2023-02-06T09:49:16.577Z,73.2
2023-02-06T09:50:20.294Z,72.5
2023-02-06T09:51:24.021Z,72.8
2023-02-06T09:52:27.325Z,72.8
2023-02-06T09:53:31.992Z,73
2023-02-06T09:54:35.120Z,73
2023-02-06T09:55:39.599Z,73.1
2023-02-06T09:56:44.207Z,72.5
2023-02-06T09:57:47.584Z,72.3
2023-02-06T09:58:51.494Z,72.2
2023-02-06T09:59:54.544Z,72.2
2023-02-06T10:00:57.280Z,72.1
2023-02-06T10:02:00.356Z,72.3
2023-02-06T10:03:03.458Z,72.2
2023-02-06T10:04:07.111Z,72.8
2023-02-06T10:05:10.257Z,72.3
2023-02-06T10:06:13.939Z,72.3
2023-02-06T10:07:17.609Z,72.5
2023-02-06T10:08:21.253Z,72.8
2023-02-06T10:09:24.602Z,72.7
2023-02-06T10:10:28.138Z,72.4
2023-02-06T10:11:31.331Z,72.1
2023-02-06T10:12:35.426Z,71.6
2023-02-06T10:13:39.145Z,71.4
2023-02-06T10:14:42.909Z,70.9
2023-02-06T10:15:47.493Z,68.7
2023-02-06T10:16:51.397Z,67.5
2023-02-06T10:17:54.132Z,66.8
2023-02-06T10:18:57.254Z,65.4
2023-02-06T10:20:00.010Z,64.5
2023-02-06T10:21:02.831Z,64.4
2023-02-06T10:22:06.841Z,64.1
2023-02-06T10:23:10.293Z,64.2
2023-02-06T10:24:13.799Z,64
2023-02-06T10:25:17.166Z,64.2
2023-02-06T10:26:20.827Z,63.9
2023-02-06T10:27:24.049Z,63.9
2023-02-06T10:28:27.434Z,64.1
2023-02-06T10:29:30.544Z,63.8
2023-02-06T10:30:34.644Z,63.3
2023-02-06T10:31:38.494Z,63.1
2023-02-06T10:32:42.002Z,63
2023-02-06T10:33:45.437Z,63.1
2023-02-06T10:34:47.952Z,63.1
2023-02-06T10:35:51.201Z,62.7
2023-02-06T10:36:54.957Z,62.5
2023-02-06T10:37:58.226Z,62.2
2023-02-06T10:39:02.024Z,61.6
2023-02-06T10:40:05.360Z,61.4
2023-02-06T10:41:08.516Z,60.1
2023-02-06T10:42:11.584Z,59.4
2023-02-06T10:43:14.913Z,59.3
2023-02-06T10:44:18.544Z,58.3
2023-02-06T10:45:22.613Z,56.8
2023-02-06T10:46:26.683Z,56.6
2023-02-06T10:47:30.817Z,56.5
2023-02-06T10:48:34.053Z,55.8
2023-02-06T10:49:37.420Z,54.9
2023-02-06T10:50:40.772Z,55.5
2023-02-06T10:51:43.741Z,55.2
2023-02-06T10:52:46.900Z,54.7
2023-02-06T10:53:49.925Z,55.3
2023-02-06T10:54:53.386Z,55.5
2023-02-06T10:55:57.416Z,55.7
2023-02-06T10:57:01.156Z,56.4
2023-02-06T10:58:04.637Z,56.5
2023-02-06T10:59:07.973Z,57.1
2023-02-06T11:00:11.486Z,57.5
2023-02-06T11:01:28.056Z,57.3
2023-02-06T11:02:32.783Z,56.7
2023-02-06T11:03:35.900Z,57
2023-02-06T11:04:42.622Z,57.5
2023-02-06T11:05:46.161Z,57.2
2023-02-06T11:06:49.880Z,57.6
2023-02-06T11:07:52.993Z,58.2
2023-02-06T11:08:56.101Z,58.6
2023-02-06T11:09:59.216Z,58.4
2023-02-06T11:11:03.233Z,58.1
2023-02-06T11:12:06.376Z,58.2
2023-02-06T11:13:09.409Z,57.4
2023-02-06T11:14:12.711Z,56.6
2023-02-06T11:15:16.348Z,56.2
2023-02-06T11:16:19.836Z,55.2
2023-02-06T11:17:23.404Z,54.5
2023-02-06T11:18:27.142Z,54
2023-02-06T11:19:29.631Z,53.5
2023-02-06T11:20:33.374Z,52.8
2023-02-06T11:21:36.945Z,52.2
2023-02-06T11:22:54.875Z,52.2
2023-02-06T11:23:58.577Z,52.8
2023-02-06T11:25:02.327Z,52.6
2023-02-06T11:26:05.755Z,52.3
2023-02-06T11:27:08.879Z,52.2
2023-02-06T11:28:12.819Z,51.8
2023-02-06T11:29:16.308Z,52.3
2023-02-06T11:30:19.797Z,52.1
2023-02-06T11:31:23.117Z,52.1
2023-02-06T11:32:26.910Z,52.8
2023-02-06T11:33:30.905Z,52.7
2023-02-06T11:34:34.634Z,52.9
2023-02-06T11:35:39.940Z,53.6
2023-02-06T11:36:43.475Z,54.1
2023-02-06T11:37:46.893Z,54.5
2023-02-06T11:38:50.529Z,54.5
2023-02-06T11:39:53.861Z,54.9
2023-02-06T11:40:57.306Z,55.2
2023-02-06T11:42:00.328Z,55.5
2023-02-06T11:43:03.501Z,55.7
2023-02-06T11:44:07.716Z,56
2023-02-06T11:45:10.469Z,56.1
2023-02-06T11:46:14.754Z,56.2
2023-02-06T11:47:18.772Z,56.4
2023-02-06T11:48:22.140Z,56.8
2023-02-06T11:49:26.033Z,56.4
2023-02-06T11:50:29.931Z,56.4
2023-02-06T11:51:33.639Z,56.6
2023-02-06T11:52:37.260Z,56.8
2023-02-06T11:53:41.034Z,57
2023-02-06T11:54:43.831Z,57.4
2023-02-06T11:55:46.906Z,57.9
2023-02-06T11:56:49.974Z,58.5
2023-02-06T11:57:53.856Z,59.1
2023-02-06T11:58:56.696Z,58.9
2023-02-06T12:00:00.121Z,59.2
2023-02-06T12:01:03.266Z,59.4
2023-02-06T12:02:06.708Z,59.6
2023-02-06T12:03:10.060Z,59.5
2023-02-06T12:04:13.111Z,59.5
2023-02-06T12:05:17.209Z,59.6
2023-02-06T12:06:21.004Z,59.5
2023-02-06T12:07:24.723Z,59.3
2023-02-06T12:08:27.871Z,59.6
2023-02-06T12:09:31.058Z,59.4
2023-02-06T12:10:34.699Z,59.5
2023-02-06T12:11:37.956Z,59
2023-02-06T12:12:41.041Z,59.1
2023-02-06T12:13:44.711Z,59.2
2023-02-06T12:14:47.131Z,58.9
2023-02-06T12:15:53.532Z,58.2
2023-02-06T12:16:58.408Z,58
2023-02-06T12:18:01.882Z,56.8
2023-02-06T12:19:05.583Z,56.8
2023-02-06T12:20:09.650Z,56.1
2023-02-06T12:21:13.411Z,55.6
2023-02-06T12:22:16.750Z,55
2023-02-06T12:23:19.743Z,54.4
2023-02-06T12:24:23.164Z,53.9
2023-02-06T12:25:26.156Z,53.4
2023-02-06T12:26:28.646Z,53.9
2023-02-06T12:27:31.614Z,54.3
2023-02-06T12:28:35.282Z,54.6
2023-02-06T12:29:38.109Z,55.3
2023-02-06T12:30:41.426Z,55.6
2023-02-06T12:31:45.716Z,55.5
2023-02-06T12:32:50.143Z,57
2023-02-06T12:33:56.464Z,57.5
2023-02-06T12:35:00.202Z,57.8
2023-02-06T12:36:03.296Z,57.9
2023-02-06T12:37:07.127Z,57.8
2023-02-06T12:38:10.628Z,57.8
2023-02-06T12:39:17.340Z,57.7
2023-02-06T12:40:21.312Z,57.6
2023-02-06T12:41:24.164Z,57.2
2023-02-06T12:42:26.906Z,57.2
2023-02-06T12:43:30.295Z,57.1
2023-02-06T12:44:33.049Z,56.9
2023-02-06T12:45:37.698Z,56.9
2023-02-06T12:46:41.982Z,57.3
2023-02-06T12:47:46.045Z,58.1
2023-02-06T12:48:49.085Z,57.8
2023-02-06T12:49:52.762Z,58.6
2023-02-06T12:50:55.972Z,58.2
2023-02-06T12:51:58.944Z,58.7
2023-02-06T12:53:02.976Z,58.8
2023-02-06T12:54:06.346Z,58.7
2023-02-06T12:55:09.426Z,58.7
2023-02-06T12:56:13.507Z,58.9
2023-02-06T12:57:16.674Z,58.9
2023-02-06T12:58:19.719Z,59.6
2023-02-06T12:59:22.698Z,62
2023-02-06T13:00:25.792Z,61.7
2023-02-06T13:01:35.915Z,59.4
2023-02-06T13:02:39.540Z,59.2
2023-02-06T13:03:43.052Z,59.2
2023-02-06T13:04:46.161Z,58.9
2023-02-06T13:05:48.971Z,59.1
2023-02-06T13:06:52.410Z,59.6
2023-02-06T13:07:55.961Z,60.1
2023-02-06T13:09:00.105Z,59.4
2023-02-06T13:10:03.224Z,59.3
2023-02-06T13:11:06.255Z,59.2
2023-02-06T13:12:09.338Z,58.8
2023-02-06T13:13:12.797Z,58.6
2023-02-06T13:14:16.564Z,58.8
2023-02-06T13:15:20.211Z,60
2023-02-06T13:16:23.832Z,59.2
2023-02-06T13:17:27.138Z,58.6
2023-02-06T13:18:29.916Z,58.8
2023-02-06T13:19:33.139Z,59.2
2023-02-06T13:20:36.531Z,59.1
2023-02-06T13:21:40.226Z,59.4
2023-02-06T13:22:43.683Z,58.7
2023-02-06T13:23:47.017Z,58.8
2023-02-06T13:24:50.733Z,59.2
2023-02-06T13:25:54.310Z,59.4
2023-02-06T13:26:57.853Z,59.7
2023-02-06T13:28:00.970Z,60.4
2023-02-06T13:29:04.972Z,60.6
2023-02-06T13:30:07.999Z,60.6
2023-02-06T13:31:11.420Z,61.2
2023-02-06T13:32:14.196Z,60.9
2023-02-06T13:33:17.306Z,60.9
2023-02-06T13:34:21.289Z,60.3
2023-02-06T13:35:24.620Z,60.1
2023-02-06T13:36:28.077Z,60.5
2023-02-06T13:37:31.622Z,60.9
2023-02-06T13:38:34.526Z,61.3
2023-02-06T13:39:37.964Z,61.4
2023-02-06T13:40:41.930Z,61.6
2023-02-06T13:41:45.053Z,61.9
2023-02-06T13:42:48.055Z,61.6
2023-02-06T13:43:50.764Z,61.1
2023-02-06T13:44:53.951Z,60.9
2023-02-06T13:45:56.900Z,60.8
2023-02-06T13:47:00.448Z,60.6
2023-02-06T13:48:02.945Z,60.7
2023-02-06T13:49:06.308Z,60.7
2023-02-06T13:50:09.907Z,60.5
2023-02-06T13:51:13.643Z,60.4
2023-02-06T13:52:17.320Z,60.7
2023-02-06T13:53:21.087Z,60.9
2023-02-06T13:54:24.716Z,61
2023-02-06T13:55:28.070Z,61.1
2023-02-06T13:56:31.346Z,61
2023-02-06T13:57:35.011Z,61
2023-02-06T13:58:37.797Z,60.9
2023-02-06T13:59:41.510Z,60.8
2023-02-06T14:00:45.313Z,60.9
2023-02-06T14:01:49.313Z,60.7
2023-02-06T14:02:53.379Z,60.4
2023-02-06T14:03:56.352Z,60.5
2023-02-06T14:04:59.359Z,60.6
2023-02-06T14:06:03.108Z,60.8
2023-02-06T14:07:06.188Z,60.6
2023-02-06T14:08:09.005Z,60.5
2023-02-06T14:09:12.833Z,60.5
2023-02-06T14:10:16.316Z,60.6
2023-02-06T14:11:19.603Z,60.5
2023-02-06T14:12:23.710Z,60.6